Latest Weather Observations for Roma

IDQ60801

Issued at 9:35 pm EST Tuesday 2 September 2014 (issued every 30 minutes, with the page automatically refreshed every 10 minutes)

About weather observations | Map of weather stations | Latest weather observations for QLD | Other Formats
Station Details ID: 043091 Name: ROMA AIRPORT Lat: -26.55 Lon: 148.77 Height: 307.38 m
Data from the previous 72 hours. | See also: Recent months at Roma
Date/Time
EST
Temp
°C
App
Temp
°C
Dew
Point
Rel
Hum
%
Delta-T
°C
Wind Press
QNH
hPa
Press
MSL
hPa
Rain
since 9 am
mm
Dir
 
Spd
km/h
Gust
km/h
Spd
kts
Gust
kts
02/09:30pm 11.4 6.6 -0.1 45 4.8 SW 15 17 8 9 1018.9 1018.1 0.0
02/09:00pm 12.5 7.2 -0.4 41 5.4 SW 17 20 9 11 1018.6 1017.8 0.0
02/08:30pm 13.6 8.0 -0.1 39 5.8 SSW 19 24 10 13 1018.3 1017.5 0.0
02/08:00pm 13.7 8.5 0.0 39 5.8 SW 17 22 9 12 1017.9 1017.1 0.0
02/07:30pm 14.3 9.1 -0.2 37 6.2 SW 17 20 9 11 1017.4 1016.6 0.0
02/07:00pm 14.9 9.2 -0.8 34 6.6 SW 19 22 10 12 1017.1 1016.3 0.0
02/06:30pm 15.9 9.6 -1.2 31 7.2 SW 22 28 12 15 1016.6 1015.9 0.0
02/06:00pm 16.6 10.2 -1.5 29 7.6 SW 22 30 12 16 1016.0 1015.2 0.0
02/05:30pm 18.5 11.0 -1.3 26 8.5 SW 28 37 15 20 1015.5 1014.7 0.0
02/05:00pm 19.8 12.2 -1.9 23 9.4 SW 28 43 15 23 1015.0 1014.2 0.0
02/04:30pm 20.6 11.6 -2.5 21 9.9 SW 35 46 19 25 1014.5 1013.7 0.0
02/04:00pm 21.8 14.3 -1.5 21 10.3 WSW 28 41 15 22 1014.2 1013.4 0.0
02/03:30pm 21.9 13.1 -1.4 21 10.3 WSW 35 46 19 25 1013.9 1013.1 0.0
02/03:00pm 22.6 14.2 -2.2 19 10.9 SW 32 44 17 24 1013.8 1012.9 0.0
02/02:46pm 22.8 14.5 -2.0 19 11.0 SW 32 50 17 27 1013.7 1012.8 0.0
02/02:30pm 22.9 13.9 -2.6 18 11.2 WSW 35 46 19 25 1013.8 1012.9 0.0
02/02:18pm 23.1 14.1 -2.5 18 11.2 WSW 35 54 19 29 1013.9 1013.1 0.0
02/02:00pm 23.2 14.3 -1.7 19 11.1 WSW 35 46 19 25 1014.0 1013.2 0.0
02/01:30pm 23.0 15.0 1.4 24 10.2 WSW 33 50 18 27 1014.1 1013.3 0.0
02/01:02pm 22.9 15.5 3.9 29 9.4 W 32 50 17 27 1014.5 1013.7 0.0
02/01:00pm 22.3 14.6 3.4 29 9.2 W 33 50 18 27 1014.5 1013.7 0.0
02/12:49pm 23.2 16.6 4.2 29 9.5 WSW 28 59 15 32 1014.6 1013.8 0.0
02/12:30pm 22.8 15.8 4.3 30 9.2 WSW 30 43 16 23 1015.0 1014.2 0.0
02/12:00pm 22.0 15.0 4.1 31 8.8 WSW 30 44 16 24 1015.4 1014.6 0.0
02/11:30am 21.7 15.1 4.3 32 8.6 WSW 28 37 15 20 1015.6 1014.8 0.0
02/11:00am 21.5 14.1 4.1 32 8.6 SW 32 41 17 22 1015.8 1015.0 0.0
02/10:30am 20.9 14.1 3.2 31 8.5 SSW 28 39 15 21 1015.9 1015.1 0.0
02/10:00am 20.7 13.4 2.5 30 8.6 SW 30 48 16 26 1016.1 1015.3 0.0
02/09:56am 20.4 13.5 2.3 30 8.5 SW 28 48 15 26 1016.0 1015.2 0.0
02/09:30am 20.1 13.0 1.5 29 8.6 SSW 28 35 15 19 1016.1 1015.3 0.0
02/09:00am 19.7 13.0 -1.4 24 9.2 WSW 24 33 13 18 1016.0 1015.2 0.0
02/08:30am 19.4 12.1 -2.8 22 9.4 W 26 35 14 19 1015.9 1015.1 0.0
02/08:00am 17.2 12.0 -0.1 31 7.6 NW 17 20 9 11 1015.5 1014.7 0.0
02/07:30am 14.3 7.5 0.5 39 6.0 WSW 26 46 14 25 1015.6 1014.8 0.0
02/07:28am 14.3 7.1 0.5 39 6.0 WSW 28 46 15 25 1015.7 1014.9 0.0
02/07:22am 14.6 6.7 0.8 39 6.0 WSW 32 46 17 25 1015.4 1014.6 0.0
02/07:00am 12.7 7.2 0.5 43 5.2 N 19 22 10 12 1013.7 1012.8 0.0
02/06:30am 11.0 5.3 0.4 48 4.4 N 20 22 11 12 1013.4 1012.6 0.0
02/06:00am 10.6 5.4 0.1 48 4.3 N 17 20 9 11 1013.4 1012.6 0.0
02/05:30am 10.4 5.2 0.2 49 4.2 N 17 19 9 10 1013.4 1012.6 0.0
02/05:00am 10.4 5.2 -0.1 48 4.3 N 17 20 9 11 1013.2 1012.4 0.0
02/04:30am 10.8 5.5 -0.3 46 4.5 N 17 20 9 11 1012.9 1012.1 0.0
02/04:00am 10.5 5.7 0.0 48 4.3 N 15 17 8 9 1013.0 1012.2 0.0
02/03:30am 10.5 6.4 0.0 48 4.3 N 11 13 6 7 1013.3 1012.5 0.0
02/03:00am 10.4 6.0 0.2 49 4.2 N 13 13 7 7 1013.3 1012.5 0.0
02/02:30am 10.9 6.1 0.0 47 4.5 N 15 17 8 9 1013.8 1012.9 0.0
02/02:00am 9.5 5.0 -0.1 51 3.9 N 13 13 7 7 1014.2 1013.4 0.0
02/01:30am 9.6 5.5 -0.3 50 4.0 NNE 11 15 6 8 1014.5 1013.7 0.0
02/01:00am 9.9 5.0 -0.3 49 4.1 N 15 17 8 9 1014.8 1014.0 0.0
02/12:30am 10.5 5.6 -0.6 46 4.5 N 15 17 8 9 1015.1 1014.3 0.0
02/12:00am 10.7 6.4 -2.0 41 5.0 N 11 13 6 7 1015.3 1014.5 0.0
 
Date/Time
EST
Temp
°C
App
Temp
°C
Dew
Point
Rel
Hum
%
Delta-T
°C
Wind Press
QNH
hPa
Press
MSL
hPa
Rain
since 9 am
mm
Dir
 
Spd
km/h
Gust
km/h
Spd
kts
Gust
kts
01/11:30pm 10.5 6.2 -1.5 43 4.8 N 11 13 6 7 1015.2 1014.4 0.0
01/11:00pm 11.9 8.3 -1.9 38 5.5 NNE 7 11 4 6 1015.5 1014.7 0.0
01/10:30pm 12.2 8.2 -2.0 37 5.7 N 9 11 5 6 1015.7 1014.9 0.0
01/10:00pm 14.0 10.3 -2.8 31 6.7 N 7 11 4 6 1015.7 1014.9 0.0
01/09:30pm 14.0 8.4 -2.8 31 6.7 N 17 19 9 10 1015.9 1015.1 0.0
01/09:00pm 16.6 10.4 -4.6 23 8.4 W 19 20 10 11 1015.7 1014.9 0.0
01/08:30pm 16.0 9.8 -4.5 24 8.1 W 19 19 10 10 1015.4 1014.6 0.0
01/08:00pm 15.9 10.6 -3.6 26 7.8 WNW 15 15 8 8 1015.5 1014.7 0.0
01/07:30pm 15.9 10.2 -4.1 25 7.9 WNW 17 19 9 10 1015.3 1014.5 0.0
01/07:00pm 18.0 13.0 -4.0 22 8.9 WNW 13 15 7 8 1015.1 1014.3 0.0
01/06:30pm 17.6 13.1 -3.2 24 8.6 NNW 11 11 6 6 1015.0 1014.2 0.0
01/06:00pm 21.3 17.1 -4.0 18 10.6 NNW 9 11 5 6 1014.7 1013.9 0.0
01/05:30pm 24.5 19.5 -4.7 14 12.4 NW 13 17 7 9 1014.6 1013.8 0.0
01/05:00pm 26.3 20.5 -4.3 13 13.3 W 17 24 9 13 1014.6 1013.8 0.0
01/04:30pm 27.1 21.8 -3.7 13 13.7 WNW 15 20 8 11 1014.2 1013.4 0.0
01/04:00pm 27.1 20.7 -4.7 12 13.9 NNW 20 32 11 17 1014.2 1013.4 0.0
01/03:30pm 27.5 21.3 -4.4 12 14.0 NNW 19 26 10 14 1014.3 1013.5 0.0
01/03:00pm 27.3 20.9 -4.6 12 14.0 NW 20 28 11 15 1014.5 1013.7 0.0
01/02:30pm 27.2 22.5 -1.7 15 13.3 N 13 32 7 17 1014.7 1013.9 0.0
01/02:00pm 26.8 22.3 -0.3 17 12.8 NW 13 26 7 14 1015.2 1014.4 0.0
01/01:30pm 26.6 22.3 -1.3 16 12.9 N 11 26 6 14 1015.7 1014.9 0.0
01/01:00pm 25.6 21.7 -1.2 17 12.3 N 9 15 5 8 1016.4 1015.6 0.0
01/12:30pm 25.8 20.8 -1.1 17 12.4 NNW 15 20 8 11 1017.2 1016.4 0.0
01/12:00pm 25.2 20.9 -1.6 17 12.2 NNW 11 19 6 10 1017.7 1016.9 0.0
01/11:30am 24.7 19.9 0.3 20 11.4 N 15 26 8 14 1018.1 1017.3 0.0
01/11:00am 23.6 18.3 -0.6 20 11.0 N 17 28 9 15 1018.8 1018.0 0.0
01/10:30am 22.9 18.3 1.3 24 10.2 N 15 20 8 11 1019.1 1018.3 0.0
01/10:00am 22.2 17.3 2.3 27 9.5 N 17 24 9 13 1019.3 1018.5 0.0
01/09:30am 20.4 15.5 2.3 30 8.5 N 17 22 9 12 1019.4 1019.2 0.0
01/09:00am 18.2 13.7 2.1 34 7.4 N 15 19 8 10 1019.5 1019.3 0.0
01/08:30am 15.5 12.9 4.2 47 5.3 NE 7 11 4 6 1019.9 1019.7 0.0
01/08:00am 12.6 9.5 3.5 54 4.1 N 9 11 5 6 1019.9 1019.7 0.0
01/07:30am 8.5 4.9 3.1 69 2.3 NNE 11 17 6 9 1020.3 1020.2 0.0
01/07:00am 5.7 3.0 2.9 82 1.2 NNE 6 7 3 4 1019.5 1019.3 0.0
01/06:30am 4.1 1.0 1.1 81 1.2 N 7 7 4 4 1019.2 1019.0 0.0
01/06:00am 4.5 1.4 1.5 81 1.2 N 7 9 4 5 1018.6 1018.4 0.0
01/05:30am 4.9 2.0 1.7 80 1.3 N 6 7 3 4 1018.3 1018.1 0.0
01/05:00am 5.3 2.3 2.1 80 1.3 N 7 7 4 4 1017.8 1017.6 0.0
01/04:30am 4.6 1.1 1.5 80 1.2 N 9 9 5 5 1017.6 1017.4 0.0
01/04:00am 5.5 2.5 2.3 80 1.3 NNE 7 7 4 4 1017.3 1017.0 0.0
01/03:30am 5.1 2.0 1.6 78 1.4 N 7 7 4 4 1017.4 1017.1 0.0
01/03:00am 5.3 2.3 2.3 81 1.2 NNE 7 9 4 5 1017.5 1017.2 0.0
01/02:30am 5.8 2.9 2.6 80 1.3 NNE 7 9 4 5 1017.8 1017.6 0.0
01/02:00am 6.3 3.5 2.9 79 1.4 N 7 9 4 5 1018.2 1018.0 0.0
01/01:30am 6.2 3.3 2.8 79 1.4 N 7 11 4 6 1018.3 1018.1 0.0
01/01:00am 6.4 2.8 2.9 78 1.5 NNW 11 13 6 7 1018.4 1018.2 0.0
01/12:30am 7.3 4.5 3.2 75 1.8 SE 7 11 4 6 1018.5 1018.3 0.0
01/12:00am 6.9 3.6 2.2 72 2.0 E 9 13 5 7 1018.7 1018.5 0.0
 
Date/Time
EST
Temp
°C
App
Temp
°C
Dew
Point
Rel
Hum
%
Delta-T
°C
Wind Press
QNH
hPa
Press
MSL
hPa
Rain
since 9 am
mm
Dir
 
Spd
km/h
Gust
km/h
Spd
kts
Gust
kts
31/11:30pm 7.8 5.1 2.9 71 2.1 NW 6 7 3 4 1019.0 1018.8 0.0
31/11:00pm 8.9 6.4 1.8 61 3.0 WNW 4 6 2 3 1018.8 1018.6 0.0
31/10:30pm 9.8 7.9 3.1 63 2.9 NNE 2 7 1 4 1018.6 1018.4 0.0
31/10:00pm 10.3 8.8 2.9 60 3.2 CALM 0 0 0 0 1018.5 1018.3 0.0
31/09:30pm 9.2 7.2 2.5 63 2.9 N 2 6 1 3 1018.4 1018.2 0.0
31/09:00pm 10.1 7.1 2.0 57 3.5 N 7 9 4 5 1018.3 1018.1 0.0
31/08:30pm 11.1 8.3 3.4 59 3.4 N 7 9 4 5 1018.4 1018.2 0.0
31/08:00pm 11.9 10.0 0.7 46 4.7 CALM 0 0 0 0 1018.4 1018.2 0.0
31/07:30pm 14.1 12.3 1.1 41 5.7 CALM 0 0 0 0 1018.2 1018.0 0.0
31/07:00pm 16.2 14.0 1.1 36 6.7 SE 2 6 1 3 1017.8 1017.6 0.0
31/06:30pm 17.2 14.1 -0.1 31 7.6 S 6 7 3 4 1017.3 1017.0 0.0
31/06:00pm 19.0 15.9 0.1 28 8.4 S 6 7 3 4 1017.1 1016.8 0.0
31/05:30pm 21.0 17.6 -0.3 24 9.6 S 7 11 4 6 1016.8 1016.6 0.0
31/05:00pm 22.3 17.9 0.2 23 10.1 SSE 13 17 7 9 1016.7 1016.5 0.0
31/04:30pm 22.8 18.3 0.0 22 10.5 SSE 13 19 7 10 1016.3 1016.1 0.0
31/04:00pm 23.4 19.7 -0.1 21 10.8 S 9 15 5 8 1016.4 1016.2 0.0
31/03:30pm 23.5 18.8 0.6 22 10.7 S 15 26 8 14 1016.4 1016.2 0.0
31/03:00pm 23.1 18.9 1.4 24 10.2 S 13 20 7 11 1016.5 1016.3 0.0
31/02:30pm 23.3 19.2 2.2 25 10.1 SSE 13 24 7 13 1016.8 1016.6 0.0
31/02:00pm 22.5 19.5 2.1 26 9.7 SE 7 15 4 8 1017.3 1017.0 0.0
31/01:30pm 22.8 19.6 2.8 27 9.7 - 9 - 5 - 1017.6 1017.4 0.0
31/01:00pm 22.4 18.6 4.0 30 9.1 S 13 19 7 10 1018.0 1017.8 0.0
31/12:30pm 22.2 19.2 4.3 31 8.9 W 9 20 5 11 1018.5 1018.3 0.0
31/12:00pm 21.5 19.0 4.6 33 8.4 SE 7 13 4 7 1018.7 1018.5 0.0
31/11:30am 21.1 18.8 4.6 34 8.2 SW 6 17 3 9 1019.3 1019.1 0.0
31/11:00am 20.1 17.2 4.6 36 7.6 SSE 9 15 5 8 1019.9 1019.7 0.0
31/10:30am 19.7 16.9 5.0 38 7.3 S 9 15 5 8 1020.4 1020.3 0.0
31/10:00am 18.8 16.6 6.0 43 6.4 S 7 13 4 7 1020.7 1020.5 0.0
31/09:30am 17.2 14.4 5.2 45 5.9 SSW 9 13 5 7 1020.9 1020.7 0.0
31/09:00am 15.8 13.2 3.3 43 5.8 W 6 9 3 5 1021.1 1020.9 0.0
31/08:30am 14.0 11.3 2.6 46 5.1 NW 6 7 3 4 1021.1 1020.9 0.0
31/08:00am 10.6 7.9 2.7 58 3.4 N 6 7 3 4 1021.1 1020.9 0.0
31/07:30am 7.5 4.6 1.6 66 2.4 NNE 6 7 3 4 1020.9 1020.7 0.0
31/07:00am 5.0 1.9 1.3 77 1.5 NNE 7 9 4 5 1020.6 1020.4 0.0
31/06:30am 3.2 -0.4 0.3 81 1.1 N 9 9 5 5 1020.1 1019.9 0.0
31/06:00am 3.4 0.4 0.5 81 1.1 N 6 7 3 4 1019.9 1019.7 0.0
31/05:30am 3.5 -0.1 0.4 80 1.2 N 9 9 5 5 1019.7 1019.5 0.0
31/05:00am 3.6 0.4 0.5 80 1.2 N 7 9 4 5 1019.6 1019.4 0.0
31/04:30am 3.9 0.6 0.4 78 1.4 N 7 9 4 5 1019.6 1019.4 0.0
31/04:00am 4.3 1.3 1.0 79 1.3 N 6 7 3 4 1019.5 1019.3 0.0
31/03:30am 4.4 1.2 0.6 76 1.5 N 7 9 4 5 1019.7 1019.5 0.0
31/03:00am 4.3 1.1 0.6 77 1.4 N 7 7 4 4 1019.8 1019.6 0.0
31/02:30am 4.7 1.8 1.2 78 1.4 NNE 6 7 3 4 1019.9 1019.7 0.0
31/02:00am 4.9 1.8 1.2 77 1.5 N 7 9 4 5 1020.0 1019.8 0.0
31/01:30am 4.8 1.7 1.1 77 1.5 N 7 7 4 4 1020.1 1019.9 0.0
31/01:00am 5.1 1.6 1.0 75 1.6 N 9 11 5 6 1020.2 1020.0 0.0
31/12:30am 5.0 2.0 0.8 74 1.7 N 6 7 3 4 1020.2 1020.0 0.0
31/12:00am 5.7 2.6 1.2 73 1.8 N 7 9 4 5 1020.4 1020.3 0.0
 
Date/Time
EST
Temp
°C
App
Temp
°C
Dew
Point
Rel
Hum
%
Delta-T
°C
Wind Press
QNH
hPa
Press
MSL
hPa
Rain
since 9 am
mm
Dir
 
Spd
km/h
Gust
km/h
Spd
kts
Gust
kts
30/11:30pm 6.1 2.9 -0.4 63 2.5 WNW 6 7 3 4 1020.3 1020.2 0.0
30/11:00pm 5.6 2.3 -0.2 66 2.2 WNW 7 9 4 5 1020.4 1020.3 0.0
30/10:30pm 7.2 4.8 0.0 60 2.9 S 2 6 1 3 1020.4 1020.3 0.0
30/10:00pm 7.4 5.2 -1.3 54 3.3 CALM 0 0 0 0 1020.3 1020.2 0.0

Other Formats:

Comma delimited format used in spreadsheet applications
http://www.bom.gov.au/fwo/IDQ60801/IDQ60801.94515.axf

JavaScript Object Notation format (JSON) in row-major order
http://www.bom.gov.au/fwo/IDQ60801/IDQ60801.94515.json